Details for Thomas Cook Airlines at EGKK




Go Back


Latest METAR
Local Time

EGKK 221120Z 23005KT 9999 -RA FEW030 13/08 Q1020
22/09/2018, 12:52:21

Description
Results
Thomas Cook Airlines Logo
Number of Pilots based at EGKK
6 Pilots Based here
Number of Thomas Cook Airlines Flights Departed from EGKK
0 Flights Departed
Number of Thomas Cook Airlines Flights Arrived at EGKK
0 Flights Arrived
Number of Thomas Cook Airlines Schedules Departing from EGKK
55 Schedules
Number of Thomas Cook Airlines Schedules Arriving at EGKK
53 Schedules
Number of Thomas Cook Airlines Schedules Departing from EGKK availible today
12 Schedules Today
Number of Thomas Cook Airlines Schedules Arriving at EGKK availible today
11 Schedules Today
Average Landing Rate at EGKK
-229 fpm
Thomas Cook Airlines Average Landing Rate at EGKK
0 fpm
Total Fuel Purchased at EGKK by Thomas Cook Airlines
0.00 kgs / 0.00 lbs

Pilots Based at EGKK


Pilot ID
Pilot Name
Pilot Rank
No. of Flights
No. of Flying Hours
Dan Symons
114
437.51
George Jones
35
95.53
Alexander Haynes
0
0
Maurice Lyon
179
846.41
Matthew Smith
93
700.29
William Shaw
180
430.37
Content